KGEG/GEG METAR and TAF weather

Enter ICAO airport designator
Station Type Date Time Source
KGEG METAR 2019/02/17 15:53 UTC NOAA

KGEG 171553Z 00000KT 1SM R21/P6000FT -SN BR BKN005 OVC007 M02/M04 A2994 RMK AO2 SLP159 P0001 T10221039


Station Type Date Time Source
KGEG Decoded METAR 2019/02/17 15:53 UTC NOAA

SPOKANE INTERNATIONAL AIRPORT , WA, United States (KGEG) 47-37N 117-32W 735M
Feb 17, 2019 - 10:53 AM EST / 2019.02.17 1553 UTC
Wind: Calm:0
Visibility: 1 mile(s):0
Sky conditions: overcast
Weather: light snow; mist
Precipitation last hour: 0.01 inches
Temperature: 28.0 F (-2.2 C)
Dew Point: 25.0 F (-3.9 C)
Relative Humidity: 88%
Pressure (altimeter): 29.94 in. Hg (1013 hPa)
ob: KGEG 171553Z 00000KT 1SM R21/P6000FT -SN BR BKN005 OVC007 M02/M04 A2994 RMK AO2 SLP159 P0001 T10221039
cycle: 16

Station Type Date Time Source
KGEG TAF 2019/02/17 12:30 UTC NOAA

TAF KGEG 171129Z 1712/1812 VRB03KT 1/2SM FZFG VCSH OVC002
FM171300 03004KT 2SM -SN BR SCT004 OVC008
FM172000 05007KT P6SM VCSH SCT015 BKN030
FM180200 02005KT P6SM SCT250


Example: see airport list